createdAt,value
2023-01-26T00:02:02.103Z,23.70
2023-01-26T00:04:29.832Z,22.25
2023-01-26T00:06:57.788Z,21.30
2023-01-26T00:09:25.295Z,20.63
2023-01-26T00:11:54.208Z,22.15
2023-01-26T00:14:21.775Z,22.15
2023-01-26T00:16:49.414Z,20.42
2023-01-26T00:19:16.988Z,21.48
2023-01-26T00:21:44.819Z,21.05
2023-01-26T00:24:12.396Z,21.35
2023-01-26T00:26:39.983Z,20.88
2023-01-26T00:29:08.837Z,22.00
2023-01-26T00:31:36.451Z,20.98
2023-01-26T00:34:04.097Z,21.30
2023-01-26T00:36:31.667Z,20.33
2023-01-26T00:38:59.222Z,21.88
2023-01-26T00:41:44.446Z,21.90
2023-01-26T00:44:13.396Z,20.80
2023-01-26T00:46:41.080Z,20.92
2023-01-26T00:49:09.007Z,21.48
2023-01-26T00:51:37.943Z,21.92
2023-01-26T00:54:05.634Z,21.83
2023-01-26T00:56:33.221Z,20.55
2023-01-26T00:59:00.828Z,20.20
2023-01-26T01:01:29.801Z,21.88
2023-01-26T01:03:57.323Z,20.48
2023-01-26T01:06:24.936Z,20.13
2023-01-26T01:08:52.563Z,21.15
2023-01-26T01:11:20.116Z,21.58
2023-01-26T01:13:47.860Z,20.40
2023-01-26T01:16:17.888Z,19.90
2023-01-26T01:18:47.411Z,20.83
2023-01-26T01:21:17.391Z,19.73
2023-01-26T01:23:45.369Z,19.58
2023-01-26T01:26:14.189Z,21.02
2023-01-26T01:28:43.627Z,19.77
2023-01-26T01:31:13.551Z,20.30
2023-01-26T01:33:42.132Z,21.60
2023-01-26T01:36:12.913Z,21.33
2023-01-26T01:38:40.855Z,20.65
2023-01-26T01:41:09.029Z,19.65
2023-01-26T01:43:37.531Z,20.70
2023-01-26T01:46:08.512Z,20.92
2023-01-26T01:48:41.785Z,19.70
2023-01-26T01:51:15.729Z,20.35
2023-01-26T01:53:47.804Z,21.15
2023-01-26T01:56:21.414Z,20.33
2023-01-26T01:58:52.729Z,21.98
2023-01-26T02:01:20.511Z,21.40
2023-01-26T02:03:51.448Z,21.42
2023-01-26T02:06:24.289Z,22.35
2023-01-26T02:08:57.613Z,21.77
2023-01-26T02:11:29.234Z,20.63
2023-01-26T02:13:58.716Z,20.50
2023-01-26T02:16:26.435Z,22.48
2023-01-26T02:18:55.015Z,19.65
2023-01-26T02:21:25.283Z,20.77
2023-01-26T02:24:08.487Z,20.80
2023-01-26T02:26:38.517Z,19.48
2023-01-26T02:29:10.432Z,20.10
2023-01-26T02:31:42.463Z,20.23
2023-01-26T02:34:10.190Z,19.75
2023-01-26T02:36:38.126Z,20.27
2023-01-26T02:39:22.100Z,18.45
2023-01-26T02:42:10.502Z,18.02
2023-01-26T02:44:42.508Z,19.65
2023-01-26T02:47:13.729Z,20.38
2023-01-26T02:49:50.953Z,19.52
2023-01-26T02:52:22.095Z,18.67
2023-01-26T02:55:14.182Z,19.40
2023-01-26T02:57:44.676Z,17.60
2023-01-26T03:00:15.608Z,18.50
2023-01-26T03:02:44.020Z,18.27
2023-01-26T03:05:11.766Z,18.95
2023-01-26T03:07:39.426Z,17.70
2023-01-26T03:10:09.010Z,18.45
2023-01-26T03:12:36.880Z,19.10
2023-01-26T03:15:24.627Z,19.05
2023-01-26T03:18:12.814Z,18.70
2023-01-26T03:20:58.068Z,17.38
2023-01-26T03:23:43.342Z,19.33
2023-01-26T03:26:30.861Z,18.88
2023-01-26T03:28:58.669Z,18.05
2023-01-26T03:31:27.767Z,18.50
2023-01-26T03:33:55.373Z,19.50
2023-01-26T03:36:23.689Z,20.58
2023-01-26T03:38:52.106Z,17.75
2023-01-26T03:41:39.759Z,18.58
2023-01-26T03:44:24.898Z,20.83
2023-01-26T03:47:11.784Z,18.08
2023-01-26T03:49:58.177Z,19.15
2023-01-26T03:52:43.281Z,19.27
2023-01-26T03:55:28.714Z,18.05
2023-01-26T03:57:56.411Z,17.40
2023-01-26T04:00:24.006Z,17.90
2023-01-26T04:03:11.328Z,19.42
2023-01-26T04:05:56.393Z,19.48
2023-01-26T04:08:46.404Z,17.70
2023-01-26T04:11:14.184Z,18.65
2023-01-26T04:13:59.572Z,18.15
2023-01-26T04:16:48.620Z,20.08
2023-01-26T04:19:35.759Z,17.73
2023-01-26T04:22:04.204Z,19.90
2023-01-26T04:24:34.802Z,18.52
2023-01-26T04:27:02.292Z,20.27
2023-01-26T04:29:35.889Z,20.02
2023-01-26T04:32:03.629Z,17.27
2023-01-26T04:34:34.847Z,17.13
2023-01-26T04:37:06.826Z,17.25
2023-01-26T04:39:44.503Z,18.65
2023-01-26T04:42:12.058Z,18.42
2023-01-26T04:44:40.340Z,17.58
2023-01-26T04:47:08.101Z,16.65
2023-01-26T04:49:37.137Z,16.58
2023-01-26T04:52:04.804Z,17.23
2023-01-26T04:54:32.437Z,15.40
2023-01-26T04:57:00.321Z,16.20
2023-01-26T04:59:27.949Z,15.55
2023-01-26T05:01:59.762Z,15.77
2023-01-26T05:04:27.563Z,15.70
2023-01-26T05:06:56.603Z,15.73
2023-01-26T05:09:28.653Z,15.77
2023-01-26T05:12:32.938Z,15.00
2023-01-26T05:15:28.352Z,14.45
2023-01-26T05:18:01.045Z,12.95
2023-01-26T05:20:37.759Z,13.15
2023-01-26T05:23:27.291Z,13.60
2023-01-26T05:26:15.175Z,13.90
2023-01-26T05:28:51.099Z,14.60
2023-01-26T05:31:18.808Z,15.60
2023-01-26T05:33:46.354Z,14.88
2023-01-26T05:36:19.018Z,14.40
2023-01-26T05:38:48.271Z,13.40
2023-01-26T05:41:18.204Z,12.65
2023-01-26T05:44:10.502Z,14.48
2023-01-26T05:46:44.276Z,13.73
2023-01-26T05:49:11.972Z,12.95
2023-01-26T05:51:39.548Z,12.68
2023-01-26T05:54:09.479Z,13.00
2023-01-26T05:56:37.123Z,13.13
2023-01-26T05:59:06.780Z,13.20
2023-01-26T06:01:34.972Z,13.50
2023-01-26T06:04:06.573Z,13.63
2023-01-26T06:06:44.112Z,14.30
2023-01-26T06:09:27.760Z,11.93
2023-01-26T06:12:18.130Z,13.40
2023-01-26T06:14:58.038Z,13.20
2023-01-26T06:17:45.880Z,13.38
2023-01-26T06:20:15.548Z,14.35
2023-01-26T06:22:51.431Z,12.63
2023-01-26T06:25:20.419Z,13.10
2023-01-26T06:27:48.065Z,13.48
2023-01-26T06:30:24.245Z,12.43
2023-01-26T06:32:52.649Z,12.55
2023-01-26T06:35:20.519Z,13.95
2023-01-26T06:37:49.993Z,12.80
2023-01-26T06:40:19.927Z,12.25
2023-01-26T06:42:50.978Z,12.98
2023-01-26T06:45:20.666Z,12.80
2023-01-26T06:47:50.201Z,13.25
2023-01-26T06:50:20.901Z,13.52
2023-01-26T06:52:49.044Z,12.40
2023-01-26T06:55:56.139Z,11.85
2023-01-26T06:58:47.020Z,12.18
2023-01-26T07:01:49.732Z,12.43
2023-01-26T07:04:18.376Z,13.10
2023-01-26T07:06:45.906Z,13.15
2023-01-26T07:09:13.717Z,13.23
2023-01-26T07:11:43.017Z,13.48
2023-01-26T07:14:10.574Z,13.60
2023-01-26T07:16:38.226Z,14.38
2023-01-26T07:19:05.836Z,12.65
2023-01-26T07:21:35.460Z,14.02
2023-01-26T07:24:03.073Z,14.80
2023-01-26T07:26:30.572Z,14.05
2023-01-26T07:28:59.419Z,14.45
2023-01-26T07:31:27.101Z,13.27
2023-01-26T07:33:54.715Z,13.75
2023-01-26T07:36:22.833Z,14.80
2023-01-26T07:38:50.317Z,13.32
2023-01-26T07:41:18.003Z,12.73
2023-01-26T07:43:45.670Z,13.50
2023-01-26T07:46:14.551Z,12.63
2023-01-26T07:48:42.330Z,14.07
2023-01-26T07:51:11.231Z,13.77
2023-01-26T07:53:40.166Z,12.20
2023-01-26T07:56:09.935Z,14.68
2023-01-26T07:58:38.947Z,13.52
2023-01-26T08:01:11.055Z,12.90
2023-01-26T08:03:40.760Z,12.75
2023-01-26T08:06:12.027Z,12.77
2023-01-26T08:08:42.619Z,12.60
2023-01-26T08:11:10.870Z,13.20
2023-01-26T08:13:39.197Z,13.30
2023-01-26T08:16:09.487Z,12.13
2023-01-26T08:18:37.373Z,11.65
2023-01-26T08:21:06.742Z,12.30
2023-01-26T08:23:34.410Z,12.35
2023-01-26T08:26:02.453Z,12.20
2023-01-26T08:28:30.105Z,11.70
2023-01-26T08:30:58.043Z,12.38
2023-01-26T08:33:25.668Z,11.40
2023-01-26T08:35:53.406Z,12.18
2023-01-26T08:38:22.344Z,10.77
2023-01-26T08:40:52.870Z,11.18
2023-01-26T08:43:20.736Z,11.65
2023-01-26T08:45:48.577Z,11.57
2023-01-26T08:48:16.374Z,12.15
2023-01-26T08:50:43.991Z,11.10
2023-01-26T08:53:11.714Z,12.07
2023-01-26T08:55:40.784Z,10.88
2023-01-26T08:58:08.334Z,10.23
2023-01-26T09:00:39.063Z,10.55
2023-01-26T09:03:07.667Z,9.15
2023-01-26T09:05:37.924Z,8.77
2023-01-26T09:08:07.967Z,7.43
2023-01-26T09:10:38.158Z,7.72
2023-01-26T09:13:07.585Z,8.18
2023-01-26T09:15:35.200Z,7.50
2023-01-26T09:18:03.050Z,8.68
2023-01-26T09:20:30.700Z,8.02
2023-01-26T09:22:58.653Z,8.38
2023-01-26T09:25:26.319Z,8.43
2023-01-26T09:27:53.864Z,8.63
2023-01-26T09:30:24.656Z,8.60
2023-01-26T09:32:52.416Z,8.98
2023-01-26T09:35:20.051Z,9.27
2023-01-26T09:37:47.655Z,8.35
2023-01-26T09:40:19.187Z,8.80
2023-01-26T09:42:59.624Z,8.82
2023-01-26T09:45:34.559Z,7.90
2023-01-26T09:48:16.178Z,8.50
2023-01-26T09:50:52.023Z,7.68
2023-01-26T09:53:23.763Z,7.47
2023-01-26T09:55:52.984Z,8.20
2023-01-26T09:58:32.907Z,8.20
2023-01-26T10:01:03.754Z,8.90
2023-01-26T10:03:37.574Z,8.70
2023-01-26T10:06:14.960Z,8.77
2023-01-26T10:09:03.669Z,8.27
2023-01-26T10:11:38.115Z,7.97
2023-01-26T10:14:12.402Z,8.25
2023-01-26T10:16:42.292Z,8.25
2023-01-26T10:19:15.232Z,8.02
2023-01-26T10:21:46.609Z,8.80
2023-01-26T10:24:18.551Z,9.20
2023-01-26T10:26:46.383Z,9.60
2023-01-26T10:29:16.589Z,8.73
2023-01-26T10:31:46.197Z,8.88
2023-01-26T10:34:17.615Z,9.02
2023-01-26T10:36:47.388Z,8.23
2023-01-26T10:39:18.840Z,8.90
2023-01-26T10:42:00.395Z,9.93
2023-01-26T10:44:33.820Z,10.55
2023-01-26T10:47:08.438Z,10.25
2023-01-26T10:49:36.133Z,9.32
2023-01-26T10:52:09.348Z,9.57
2023-01-26T10:54:38.084Z,10.15
2023-01-26T10:57:11.397Z,10.30
2023-01-26T10:59:43.501Z,9.68
2023-01-26T11:02:23.821Z,9.05
2023-01-26T11:05:15.548Z,9.23
2023-01-26T11:07:44.124Z,9.00
2023-01-26T11:10:24.450Z,9.75
2023-01-26T11:12:53.622Z,8.73
2023-01-26T11:15:23.055Z,9.25
2023-01-26T11:17:59.244Z,10.43
2023-01-26T11:20:43.363Z,9.30
2023-01-26T11:23:18.376Z,10.27
2023-01-26T11:25:58.290Z,9.30
2023-01-26T11:28:43.142Z,10.15
2023-01-26T11:31:19.304Z,9.25
2023-01-26T11:33:56.519Z,9.98
2023-01-26T11:36:32.087Z,9.57
2023-01-26T11:39:08.654Z,9.43
2023-01-26T11:41:47.777Z,10.50
2023-01-26T11:44:26.817Z,9.95
2023-01-26T11:47:04.969Z,10.88
2023-01-26T11:49:47.815Z,9.48
2023-01-26T11:52:24.977Z,10.38
2023-01-26T11:55:08.639Z,8.98
2023-01-26T11:57:42.664Z,10.02
2023-01-26T12:00:29.174Z,9.75
2023-01-26T12:03:01.727Z,9.80
2023-01-26T12:05:34.951Z,9.55
2023-01-26T12:08:08.165Z,10.95
2023-01-26T12:10:42.149Z,10.30
2023-01-26T12:13:17.416Z,10.95
2023-01-26T12:15:50.574Z,10.88
2023-01-26T12:18:23.445Z,11.98
2023-01-26T12:20:56.545Z,11.02
2023-01-26T12:23:30.907Z,9.25
2023-01-26T12:26:02.043Z,8.15
2023-01-26T12:28:34.569Z,8.55
2023-01-26T12:31:07.659Z,9.15
2023-01-26T12:33:37.283Z,7.90
2023-01-26T12:36:19.962Z,8.50
2023-01-26T12:39:08.141Z,8.13
2023-01-26T12:41:47.486Z,9.38
2023-01-26T12:44:28.055Z,10.18
2023-01-26T12:47:00.527Z,10.23
2023-01-26T12:49:32.869Z,9.90
2023-01-26T12:52:08.212Z,8.93
2023-01-26T12:54:41.766Z,10.45
2023-01-26T12:57:15.062Z,11.68
2023-01-26T12:59:48.444Z,8.50
2023-01-26T13:02:27.186Z,10.82
2023-01-26T13:04:55.056Z,8.88
2023-01-26T13:07:33.963Z,9.45
2023-01-26T13:10:27.061Z,8.48
2023-01-26T13:12:57.310Z,7.63
2023-01-26T13:15:26.572Z,6.90
2023-01-26T13:17:57.219Z,7.28
2023-01-26T13:20:44.578Z,8.18
2023-01-26T13:23:52.797Z,6.85
2023-01-26T13:26:46.515Z,7.47
2023-01-26T13:29:33.314Z,7.18
2023-01-26T13:32:23.089Z,7.63
2023-01-26T13:34:54.599Z,7.25
2023-01-26T13:37:27.476Z,6.45
2023-01-26T13:40:00.763Z,6.28
2023-01-26T13:42:32.480Z,6.32
2023-01-26T13:45:05.171Z,6.57
2023-01-26T13:47:38.625Z,6.20
2023-01-26T13:50:22.987Z,5.75
2023-01-26T13:52:50.629Z,5.45
2023-01-26T13:55:25.524Z,6.47
2023-01-26T13:58:11.334Z,5.30
2023-01-26T14:00:39.100Z,6.40
2023-01-26T14:03:06.745Z,5.55
2023-01-26T14:05:36.697Z,6.78
2023-01-26T14:08:04.935Z,5.93
2023-01-26T14:10:32.537Z,6.35
2023-01-26T14:13:01.406Z,7.35
2023-01-26T14:15:31.347Z,7.32
2023-01-26T14:18:00.836Z,7.07
2023-01-26T14:20:31.431Z,6.40
2023-01-26T14:23:15.047Z,7.25
2023-01-26T14:25:46.392Z,6.30
2023-01-26T14:28:16.380Z,7.03
2023-01-26T14:30:44.353Z,6.70
2023-01-26T14:33:14.766Z,6.25
2023-01-26T14:35:42.608Z,6.90
2023-01-26T14:38:17.911Z,5.90
2023-01-26T14:40:46.228Z,7.18
2023-01-26T14:43:14.745Z,6.30
2023-01-26T14:45:48.229Z,6.30
2023-01-26T14:48:19.902Z,6.90
2023-01-26T14:50:49.033Z,6.95
2023-01-26T14:53:21.964Z,7.38
2023-01-26T14:55:51.136Z,7.18
2023-01-26T14:58:23.528Z,6.50
2023-01-26T15:00:52.104Z,6.50
2023-01-26T15:03:26.611Z,7.15
2023-01-26T15:06:18.729Z,6.60
2023-01-26T15:08:57.032Z,7.32
2023-01-26T15:11:46.963Z,7.70
2023-01-26T15:14:36.723Z,7.90
2023-01-26T15:17:04.589Z,7.10
2023-01-26T15:19:39.599Z,7.20
2023-01-26T15:22:16.806Z,7.20
2023-01-26T15:24:48.099Z,8.45
2023-01-26T15:27:15.927Z,7.53
2023-01-26T15:29:43.607Z,7.53
2023-01-26T15:32:30.133Z,8.50
2023-01-26T15:35:18.265Z,7.57
2023-01-26T15:37:45.876Z,8.68
2023-01-26T15:40:15.536Z,7.93
2023-01-26T15:42:43.238Z,7.97
2023-01-26T15:45:23.090Z,9.00
2023-01-26T15:47:50.924Z,9.23
2023-01-26T15:50:27.865Z,8.27
2023-01-26T15:52:56.313Z,10.45
2023-01-26T15:55:29.116Z,8.68
2023-01-26T15:57:56.605Z,9.35
2023-01-26T16:00:24.412Z,8.35
2023-01-26T16:02:52.170Z,8.38
2023-01-26T16:05:22.092Z,9.07
2023-01-26T16:07:49.703Z,11.52
2023-01-26T16:10:18.090Z,11.40
2023-01-26T16:12:49.332Z,8.50
2023-01-26T16:15:26.797Z,10.63
2023-01-26T16:17:54.412Z,9.18
2023-01-26T16:20:21.998Z,8.73
2023-01-26T16:22:49.793Z,8.55
2023-01-26T16:25:24.341Z,9.27
2023-01-26T16:27:53.581Z,11.95
2023-01-26T16:30:21.451Z,9.57
2023-01-26T16:32:49.348Z,10.00
2023-01-26T16:35:18.636Z,9.52
2023-01-26T16:37:46.633Z,10.88
2023-01-26T16:40:16.430Z,11.63
2023-01-26T16:42:46.273Z,10.48
2023-01-26T16:45:20.997Z,10.85
2023-01-26T16:47:50.389Z,11.18
2023-01-26T16:50:18.205Z,14.18
2023-01-26T16:52:46.066Z,10.20
2023-01-26T16:55:15.948Z,11.05
2023-01-26T16:57:44.988Z,10.75
2023-01-26T17:00:17.034Z,10.05
2023-01-26T17:02:50.007Z,10.13
2023-01-26T17:05:19.088Z,10.65
2023-01-26T17:07:50.948Z,9.95
2023-01-26T17:10:21.980Z,9.90
2023-01-26T17:12:52.849Z,10.38
2023-01-26T17:15:20.566Z,9.60
2023-01-26T17:17:55.423Z,10.35
2023-01-26T17:20:25.762Z,9.63
2023-01-26T17:22:53.403Z,8.65
2023-01-26T17:25:21.035Z,10.57
2023-01-26T17:27:50.755Z,9.07
2023-01-26T17:30:19.085Z,8.73
2023-01-26T17:32:46.766Z,8.85
2023-01-26T17:35:15.847Z,9.23
2023-01-26T17:37:43.472Z,8.95
2023-01-26T17:40:12.105Z,8.90
2023-01-26T17:42:39.608Z,8.27
2023-01-26T17:45:09.890Z,8.75
2023-01-26T17:47:38.628Z,9.57
2023-01-26T17:50:07.048Z,8.48
2023-01-26T17:52:36.493Z,10.52
2023-01-26T17:55:06.371Z,7.80
2023-01-26T17:57:34.674Z,8.10
2023-01-26T18:00:02.238Z,8.85
2023-01-26T18:02:38.059Z,7.13
2023-01-26T18:05:06.537Z,7.70
2023-01-26T18:07:34.060Z,7.40
2023-01-26T18:10:02.991Z,7.45
2023-01-26T18:12:30.727Z,7.53
2023-01-26T18:14:58.313Z,7.57
2023-01-26T18:17:25.885Z,6.60
2023-01-26T18:19:53.493Z,7.13
2023-01-26T18:22:21.020Z,7.35
2023-01-26T18:24:48.744Z,7.15
2023-01-26T18:27:17.604Z,6.60
2023-01-26T18:29:45.407Z,6.90
2023-01-26T18:32:12.945Z,6.40
2023-01-26T18:34:43.364Z,8.25
2023-01-26T18:37:12.141Z,6.78
2023-01-26T18:39:39.747Z,7.78
2023-01-26T18:42:07.351Z,6.78
2023-01-26T18:44:36.361Z,8.10
2023-01-26T18:47:04.746Z,6.22
2023-01-26T18:49:32.346Z,7.28
2023-01-26T18:51:59.954Z,9.93
2023-01-26T18:54:27.741Z,7.18
2023-01-26T18:56:56.821Z,8.38
2023-01-26T18:59:24.427Z,7.65
2023-01-26T19:01:55.307Z,6.95
2023-01-26T19:04:22.913Z,7.90
2023-01-26T19:06:50.467Z,8.50
2023-01-26T19:09:18.358Z,7.88
2023-01-26T19:11:46.326Z,7.72
2023-01-26T19:14:15.241Z,7.53
2023-01-26T19:16:43.825Z,7.60
2023-01-26T19:19:12.992Z,7.70
2023-01-26T19:21:40.659Z,8.90
2023-01-26T19:24:09.637Z,8.90
2023-01-26T19:26:37.361Z,8.27
2023-01-26T19:29:05.392Z,7.70
2023-01-26T19:31:33.721Z,8.30
2023-01-26T19:34:03.500Z,8.07
2023-01-26T19:36:34.523Z,8.70
2023-01-26T19:39:02.798Z,8.77
2023-01-26T19:41:30.429Z,8.43
2023-01-26T19:43:58.115Z,9.05
2023-01-26T19:46:25.711Z,8.55
2023-01-26T19:48:53.344Z,9.80
2023-01-26T19:51:22.648Z,9.90
2023-01-26T19:53:54.709Z,9.52
2023-01-26T19:56:23.765Z,9.25
2023-01-26T19:58:52.793Z,10.00
2023-01-26T20:01:21.318Z,9.00
2023-01-26T20:03:50.509Z,8.60
2023-01-26T20:06:20.535Z,8.90
2023-01-26T20:08:48.642Z,9.23
2023-01-26T20:11:19.680Z,8.98
2023-01-26T20:13:47.244Z,8.88
2023-01-26T20:16:14.856Z,7.82
2023-01-26T20:18:42.429Z,7.85
2023-01-26T20:21:09.912Z,8.02
2023-01-26T20:23:41.275Z,7.82
2023-01-26T20:26:13.493Z,8.43
2023-01-26T20:28:42.454Z,9.35
2023-01-26T20:31:13.922Z,8.25
2023-01-26T20:33:41.950Z,9.30
2023-01-26T20:36:11.557Z,10.63
2023-01-26T20:38:39.558Z,9.07
2023-01-26T20:41:08.530Z,11.23
2023-01-26T20:43:39.513Z,11.73
2023-01-26T20:46:12.630Z,9.90
2023-01-26T20:48:40.929Z,10.25
2023-01-26T20:51:13.491Z,9.32
2023-01-26T20:53:41.684Z,8.10
2023-01-26T20:56:11.603Z,9.88
2023-01-26T20:58:40.005Z,10.95
2023-01-26T21:01:10.580Z,11.98
2023-01-26T21:03:38.757Z,8.95
2023-01-26T21:06:07.696Z,9.75
2023-01-26T21:08:36.597Z,11.05
2023-01-26T21:11:04.591Z,9.57
2023-01-26T21:13:32.225Z,9.98
2023-01-26T21:15:59.958Z,11.07
2023-01-26T21:18:28.948Z,9.57
2023-01-26T21:20:57.439Z,9.50
2023-01-26T21:23:25.374Z,9.13
2023-01-26T21:25:58.958Z,9.18
2023-01-26T21:28:26.544Z,8.18
2023-01-26T21:31:01.539Z,8.07
2023-01-26T21:33:31.042Z,8.13
2023-01-26T21:35:58.952Z,7.90
2023-01-26T21:38:26.971Z,8.50
2023-01-26T21:41:00.918Z,7.53
2023-01-26T21:43:28.513Z,9.20
2023-01-26T21:45:56.848Z,8.05
2023-01-26T21:48:35.618Z,6.22
2023-01-26T21:51:22.673Z,6.97
2023-01-26T21:53:50.320Z,7.22
2023-01-26T21:56:18.270Z,5.93
2023-01-26T21:58:56.014Z,6.70
2023-01-26T22:01:24.549Z,5.90
2023-01-26T22:03:52.133Z,6.05
2023-01-26T22:06:21.076Z,6.03
2023-01-26T22:08:48.986Z,6.30
2023-01-26T22:11:16.616Z,5.32
2023-01-26T22:13:44.787Z,6.47
2023-01-26T22:16:12.430Z,5.50
2023-01-26T22:18:40.186Z,5.28
2023-01-26T22:21:08.552Z,5.22
2023-01-26T22:23:39.086Z,4.47
2023-01-26T22:26:08.014Z,4.82
2023-01-26T22:28:35.710Z,4.45
2023-01-26T22:31:06.565Z,4.97
2023-01-26T22:33:34.978Z,4.32
2023-01-26T22:36:05.953Z,4.25
2023-01-26T22:38:34.178Z,3.38
2023-01-26T22:41:03.459Z,4.32
2023-01-26T22:43:32.231Z,3.40
2023-01-26T22:46:03.994Z,3.22
2023-01-26T22:48:32.171Z,3.10
2023-01-26T22:51:06.544Z,3.10
2023-01-26T22:53:34.132Z,3.13
2023-01-26T22:56:04.145Z,3.15
2023-01-26T22:58:33.344Z,2.83
2023-01-26T23:01:06.328Z,3.30
2023-01-26T23:03:34.215Z,2.53
2023-01-26T23:06:02.213Z,3.13
2023-01-26T23:08:30.748Z,2.30
2023-01-26T23:11:07.879Z,2.40
2023-01-26T23:13:36.479Z,2.65
2023-01-26T23:16:05.562Z,2.40
2023-01-26T23:18:33.552Z,1.98
2023-01-26T23:21:01.243Z,2.33
2023-01-26T23:23:30.369Z,2.20
2023-01-26T23:25:58.572Z,1.73
2023-01-26T23:28:29.222Z,2.05
2023-01-26T23:30:57.928Z,1.90
2023-01-26T23:33:27.056Z,1.73
2023-01-26T23:35:55.589Z,1.80
2023-01-26T23:38:24.627Z,1.77
2023-01-26T23:40:53.117Z,1.77
2023-01-26T23:43:21.278Z,1.95
2023-01-26T23:45:51.784Z,1.90
2023-01-26T23:48:19.675Z,1.63
2023-01-26T23:50:47.853Z,1.80
2023-01-26T23:53:15.576Z,2.30
2023-01-26T23:55:44.512Z,1.60
2023-01-26T23:58:13.040Z,1.77
